KOAJ/OAJ METAR and TAF weather

Enter ICAO airport designator
Station Type Date Time Source
KOAJ METAR 2019/12/07 17:37 UTC NOAA

KOAJ 071737Z 04011KT 10SM FEW027 13/06 A3029 RMK AO2


Station Type Date Time Source
KOAJ Decoded METAR 2019/12/07 17:37 UTC NOAA

Jacksonville, Albert J Ellis Airport, NC, United States (KOAJ) 34-50N 077-37W
Dec 07, 2019 - 12:37 PM EST / 2019.12.07 1737 UTC
Wind: from the NE (040 degrees) at 13 MPH (11 KT):0
Visibility: 10 mile(s):0
Sky conditions: mostly clear
Temperature: 55 F (13 C)
Dew Point: 42 F (6 C)
Relative Humidity: 62%
Pressure (altimeter): 30.29 in. Hg (1025 hPa)
ob: KOAJ 071737Z 04011KT 10SM FEW027 13/06 A3029 RMK AO2
cycle: 17

Station Type Date Time Source
KOAJ TAF 2019/12/07 18:28 UTC NOAA

TAF KOAJ 071725Z 0718/0818 03009G15KT P6SM SCT025
FM080000 03007KT P6SM FEW250
FM081700 06006KT P6SM SCT120
AMD LTD TO CLD VIS AND WIND

Example: see airport list